sensor_id;sensor_type;location;lat;lon;timestamp;temperature;humidity
65836;SHT30;52595;51.608;7.216;2023-09-18T00:01:37;19.09;98.29
65836;SHT30;52595;51.608;7.216;2023-09-18T00:04:05;19.20;97.87
65836;SHT30;52595;51.608;7.216;2023-09-18T00:06:32;19.20;97.80
65836;SHT30;52595;51.608;7.216;2023-09-18T00:08:58;19.18;97.88
65836;SHT30;52595;51.608;7.216;2023-09-18T00:11:24;19.18;97.74
65836;SHT30;52595;51.608;7.216;2023-09-18T00:13:49;19.16;97.77
65836;SHT30;52595;51.608;7.216;2023-09-18T00:16:14;19.15;97.91
65836;SHT30;52595;51.608;7.216;2023-09-18T00:18:40;19.15;97.86
65836;SHT30;52595;51.608;7.216;2023-09-18T00:21:06;19.16;97.60
65836;SHT30;52595;51.608;7.216;2023-09-18T00:23:32;19.20;97.44
65836;SHT30;52595;51.608;7.216;2023-09-18T00:25:57;19.11;97.72
65836;SHT30;52595;51.608;7.216;2023-09-18T00:28:23;19.09;97.75
65836;SHT30;52595;51.608;7.216;2023-09-18T00:30:50;19.09;97.77
65836;SHT30;52595;51.608;7.216;2023-09-18T00:33:16;19.09;97.89
65836;SHT30;52595;51.608;7.216;2023-09-18T00:35:46;19.12;97.80
65836;SHT30;52595;51.608;7.216;2023-09-18T00:38:11;19.14;97.67
65836;SHT30;52595;51.608;7.216;2023-09-18T00:40:36;19.20;97.66
65836;SHT30;52595;51.608;7.216;2023-09-18T00:43:05;19.32;97.18
65836;SHT30;52595;51.608;7.216;2023-09-18T00:45:30;19.38;96.92
65836;SHT30;52595;51.608;7.216;2023-09-18T00:47:56;19.39;96.72
65836;SHT30;52595;51.608;7.216;2023-09-18T00:50:21;19.45;96.49
65836;SHT30;52595;51.608;7.216;2023-09-18T00:52:47;19.48;96.55
65836;SHT30;52595;51.608;7.216;2023-09-18T00:55:13;19.49;96.13
65836;SHT30;52595;51.608;7.216;2023-09-18T00:57:40;19.48;96.34
65836;SHT30;52595;51.608;7.216;2023-09-18T01:00:06;19.46;96.29
65836;SHT30;52595;51.608;7.216;2023-09-18T01:02:33;19.49;96.37
65836;SHT30;52595;51.608;7.216;2023-09-18T01:04:58;19.46;96.32
65836;SHT30;52595;51.608;7.216;2023-09-18T01:07:28;19.46;96.19
65836;SHT30;52595;51.608;7.216;2023-09-18T01:09:54;19.46;96.16
65836;SHT30;52595;51.608;7.216;2023-09-18T01:12:35;19.48;96.01
65836;SHT30;52595;51.608;7.216;2023-09-18T01:15:12;19.50;96.00
65836;SHT30;52595;51.608;7.216;2023-09-18T01:17:40;19.50;95.79
65836;SHT30;52595;51.608;7.216;2023-09-18T01:20:09;19.49;95.81
65836;SHT30;52595;51.608;7.216;2023-09-18T01:22:35;19.48;95.59
65836;SHT30;52595;51.608;7.216;2023-09-18T01:25:00;19.45;95.69
65836;SHT30;52595;51.608;7.216;2023-09-18T01:27:26;19.39;95.70
65836;SHT30;52595;51.608;7.216;2023-09-18T01:29:51;19.39;95.96
65836;SHT30;52595;51.608;7.216;2023-09-18T01:32:18;19.30;96.04
65836;SHT30;52595;51.608;7.216;2023-09-18T01:34:52;19.22;96.22
65836;SHT30;52595;51.608;7.216;2023-09-18T01:37:23;19.19;96.22
65836;SHT30;52595;51.608;7.216;2023-09-18T01:39:51;19.22;96.11
65836;SHT30;52595;51.608;7.216;2023-09-18T01:42:16;19.25;95.90
65836;SHT30;52595;51.608;7.216;2023-09-18T01:44:43;19.29;95.91
65836;SHT30;52595;51.608;7.216;2023-09-18T01:47:11;19.38;95.66
65836;SHT30;52595;51.608;7.216;2023-09-18T01:49:38;19.38;95.17
65836;SHT30;52595;51.608;7.216;2023-09-18T01:52:05;19.38;95.19
65836;SHT30;52595;51.608;7.216;2023-09-18T01:54:32;19.29;95.47
65836;SHT30;52595;51.608;7.216;2023-09-18T01:56:57;19.26;95.53
65836;SHT30;52595;51.608;7.216;2023-09-18T01:59:23;19.23;95.55
65836;SHT30;52595;51.608;7.216;2023-09-18T02:01:50;19.19;95.65
65836;SHT30;52595;51.608;7.216;2023-09-18T02:04:16;19.14;95.83
65836;SHT30;52595;51.608;7.216;2023-09-18T02:06:42;19.12;95.94
65836;SHT30;52595;51.608;7.216;2023-09-18T02:09:07;19.11;96.02
65836;SHT30;52595;51.608;7.216;2023-09-18T02:11:42;19.04;96.19
65836;SHT30;52595;51.608;7.216;2023-09-18T02:14:08;19.04;96.24
65836;SHT30;52595;51.608;7.216;2023-09-18T02:16:36;19.02;96.29
65836;SHT30;52595;51.608;7.216;2023-09-18T02:19:04;18.94;96.56
65836;SHT30;52595;51.608;7.216;2023-09-18T02:21:30;18.94;96.66
65836;SHT30;52595;51.608;7.216;2023-09-18T02:23:56;18.92;96.55
65836;SHT30;52595;51.608;7.216;2023-09-18T02:26:23;18.91;96.55
65836;SHT30;52595;51.608;7.216;2023-09-18T02:28:49;18.92;96.69
65836;SHT30;52595;51.608;7.216;2023-09-18T02:31:14;18.96;96.53
65836;SHT30;52595;51.608;7.216;2023-09-18T02:33:40;18.99;96.26
65836;SHT30;52595;51.608;7.216;2023-09-18T02:36:06;18.99;96.20
65836;SHT30;52595;51.608;7.216;2023-09-18T02:38:33;18.98;96.27
65836;SHT30;52595;51.608;7.216;2023-09-18T02:40:59;18.99;96.24
65836;SHT30;52595;51.608;7.216;2023-09-18T02:43:25;18.96;96.33
65836;SHT30;52595;51.608;7.216;2023-09-18T02:45:51;19.02;95.98
65836;SHT30;52595;51.608;7.216;2023-09-18T02:48:17;19.01;95.84
65836;SHT30;52595;51.608;7.216;2023-09-18T02:50:43;19.05;95.79
65836;SHT30;52595;51.608;7.216;2023-09-18T02:53:24;19.05;95.63
65836;SHT30;52595;51.608;7.216;2023-09-18T02:55:52;19.02;95.76
65836;SHT30;52595;51.608;7.216;2023-09-18T02:58:18;18.96;95.98
65836;SHT30;52595;51.608;7.216;2023-09-18T03:00:45;18.94;95.90
65836;SHT30;52595;51.608;7.216;2023-09-18T03:03:11;18.95;96.08
65836;SHT30;52595;51.608;7.216;2023-09-18T03:05:38;18.91;96.20
65836;SHT30;52595;51.608;7.216;2023-09-18T03:08:04;18.96;96.02
65836;SHT30;52595;51.608;7.216;2023-09-18T03:10:36;19.04;95.67
65836;SHT30;52595;51.608;7.216;2023-09-18T03:13:03;19.02;95.91
65836;SHT30;52595;51.608;7.216;2023-09-18T03:15:29;19.08;95.60
65836;SHT30;52595;51.608;7.216;2023-09-18T03:17:56;19.12;95.38
65836;SHT30;52595;51.608;7.216;2023-09-18T03:20:25;19.15;95.32
65836;SHT30;52595;51.608;7.216;2023-09-18T03:22:53;19.23;94.89
65836;SHT30;52595;51.608;7.216;2023-09-18T03:25:19;19.18;94.98
65836;SHT30;52595;51.608;7.216;2023-09-18T03:27:45;19.23;94.64
65836;SHT30;52595;51.608;7.216;2023-09-18T03:30:12;19.19;95.03
65836;SHT30;52595;51.608;7.216;2023-09-18T03:32:43;19.18;94.69
65836;SHT30;52595;51.608;7.216;2023-09-18T03:35:10;19.20;94.31
65836;SHT30;52595;51.608;7.216;2023-09-18T03:37:43;19.26;93.81
65836;SHT30;52595;51.608;7.216;2023-09-18T03:40:09;19.39;93.17
65836;SHT30;52595;51.608;7.216;2023-09-18T03:42:34;19.42;92.92
65836;SHT30;52595;51.608;7.216;2023-09-18T03:45:00;19.49;92.90
65836;SHT30;52595;51.608;7.216;2023-09-18T03:47:25;19.55;92.56
65836;SHT30;52595;51.608;7.216;2023-09-18T03:49:51;19.56;92.49
65836;SHT30;52595;51.608;7.216;2023-09-18T03:52:16;19.56;92.38
65836;SHT30;52595;51.608;7.216;2023-09-18T03:54:42;19.56;92.40
65836;SHT30;52595;51.608;7.216;2023-09-18T03:57:07;19.60;92.19
65836;SHT30;52595;51.608;7.216;2023-09-18T03:59:32;19.67;91.93
65836;SHT30;52595;51.608;7.216;2023-09-18T04:01:58;19.77;91.48
65836;SHT30;52595;51.608;7.216;2023-09-18T04:04:23;19.90;91.10
65836;SHT30;52595;51.608;7.216;2023-09-18T04:06:49;19.98;90.73
65836;SHT30;52595;51.608;7.216;2023-09-18T04:09:15;20.00;91.18
65836;SHT30;52595;51.608;7.216;2023-09-18T04:11:40;20.00;90.58
65836;SHT30;52595;51.608;7.216;2023-09-18T04:14:05;20.07;90.23
65836;SHT30;52595;51.608;7.216;2023-09-18T04:16:31;20.07;90.29
65836;SHT30;52595;51.608;7.216;2023-09-18T04:19:01;20.21;89.68
65836;SHT30;52595;51.608;7.216;2023-09-18T04:21:27;20.30;89.08
65836;SHT30;52595;51.608;7.216;2023-09-18T04:23:54;20.49;88.28
65836;SHT30;52595;51.608;7.216;2023-09-18T04:26:23;20.45;88.50
65836;SHT30;52595;51.608;7.216;2023-09-18T04:28:48;20.43;88.66
65836;SHT30;52595;51.608;7.216;2023-09-18T04:31:14;20.47;89.12
65836;SHT30;52595;51.608;7.216;2023-09-18T04:33:39;20.40;89.46
65836;SHT30;52595;51.608;7.216;2023-09-18T04:36:05;20.34;89.82
65836;SHT30;52595;51.608;7.216;2023-09-18T04:38:30;20.31;89.77
65836;SHT30;52595;51.608;7.216;2023-09-18T04:41:00;20.31;89.69
65836;SHT30;52595;51.608;7.216;2023-09-18T04:43:26;20.38;89.34
65836;SHT30;52595;51.608;7.216;2023-09-18T04:45:51;20.41;89.33
65836;SHT30;52595;51.608;7.216;2023-09-18T04:48:16;20.61;88.14
65836;SHT30;52595;51.608;7.216;2023-09-18T04:50:43;20.74;87.83
65836;SHT30;52595;51.608;7.216;2023-09-18T04:53:08;20.76;87.84
65836;SHT30;52595;51.608;7.216;2023-09-18T04:55:34;21.00;86.71
65836;SHT30;52595;51.608;7.216;2023-09-18T04:57:59;21.08;86.31
65836;SHT30;52595;51.608;7.216;2023-09-18T05:00:25;21.12;86.16
65836;SHT30;52595;51.608;7.216;2023-09-18T05:02:51;21.25;85.45
65836;SHT30;52595;51.608;7.216;2023-09-18T05:05:17;21.26;85.43
65836;SHT30;52595;51.608;7.216;2023-09-18T05:07:43;21.26;85.60
65836;SHT30;52595;51.608;7.216;2023-09-18T05:10:09;21.25;85.68
65836;SHT30;52595;51.608;7.216;2023-09-18T05:12:34;21.13;86.21
65836;SHT30;52595;51.608;7.216;2023-09-18T05:15:00;21.09;86.55
65836;SHT30;52595;51.608;7.216;2023-09-18T05:17:47;21.06;86.75
65836;SHT30;52595;51.608;7.216;2023-09-18T05:20:15;20.99;86.98
65836;SHT30;52595;51.608;7.216;2023-09-18T05:22:42;21.00;87.15
65836;SHT30;52595;51.608;7.216;2023-09-18T05:25:09;20.99;87.36
65836;SHT30;52595;51.608;7.216;2023-09-18T05:27:36;21.06;87.31
65836;SHT30;52595;51.608;7.216;2023-09-18T05:30:15;21.00;87.30
65836;SHT30;52595;51.608;7.216;2023-09-18T05:32:42;21.03;87.52
65836;SHT30;52595;51.608;7.216;2023-09-18T05:35:08;20.98;87.62
65836;SHT30;52595;51.608;7.216;2023-09-18T05:37:39;21.03;87.42
65836;SHT30;52595;51.608;7.216;2023-09-18T05:40:06;20.96;87.73
65836;SHT30;52595;51.608;7.216;2023-09-18T05:42:35;21.00;87.55
65836;SHT30;52595;51.608;7.216;2023-09-18T05:45:01;20.96;87.75
65836;SHT30;52595;51.608;7.216;2023-09-18T05:47:29;20.91;88.31
65836;SHT30;52595;51.608;7.216;2023-09-18T05:49:55;20.92;88.04
65836;SHT30;52595;51.608;7.216;2023-09-18T05:52:20;20.89;88.07
65836;SHT30;52595;51.608;7.216;2023-09-18T05:54:49;20.91;88.17
65836;SHT30;52595;51.608;7.216;2023-09-18T05:57:14;20.88;88.26
65836;SHT30;52595;51.608;7.216;2023-09-18T05:59:39;20.85;88.38
65836;SHT30;52595;51.608;7.216;2023-09-18T06:02:09;20.91;88.00
65836;SHT30;52595;51.608;7.216;2023-09-18T06:04:34;20.96;88.05
65836;SHT30;52595;51.608;7.216;2023-09-18T06:07:03;20.96;87.80
65836;SHT30;52595;51.608;7.216;2023-09-18T06:09:28;20.94;87.91
65836;SHT30;52595;51.608;7.216;2023-09-18T06:11:53;20.95;87.97
65836;SHT30;52595;51.608;7.216;2023-09-18T06:14:19;21.00;87.51
65836;SHT30;52595;51.608;7.216;2023-09-18T06:16:44;21.02;87.66
65836;SHT30;52595;51.608;7.216;2023-09-18T06:19:10;20.99;87.98
65836;SHT30;52595;51.608;7.216;2023-09-18T06:21:35;21.00;87.60
65836;SHT30;52595;51.608;7.216;2023-09-18T06:24:01;21.02;87.78
65836;SHT30;52595;51.608;7.216;2023-09-18T06:26:26;20.99;87.81
65836;SHT30;52595;51.608;7.216;2023-09-18T06:28:52;21.00;87.57
65836;SHT30;52595;51.608;7.216;2023-09-18T06:31:21;20.98;87.70
65836;SHT30;52595;51.608;7.216;2023-09-18T06:33:46;20.95;87.76
65836;SHT30;52595;51.608;7.216;2023-09-18T06:36:13;20.94;87.98
65836;SHT30;52595;51.608;7.216;2023-09-18T06:38:38;20.91;88.02
65836;SHT30;52595;51.608;7.216;2023-09-18T06:41:04;20.96;87.77
65836;SHT30;52595;51.608;7.216;2023-09-18T06:43:29;21.05;87.48
65836;SHT30;52595;51.608;7.216;2023-09-18T06:45:54;21.06;87.45
65836;SHT30;52595;51.608;7.216;2023-09-18T06:48:23;21.16;87.21
65836;SHT30;52595;51.608;7.216;2023-09-18T06:50:48;21.23;86.77
65836;SHT30;52595;51.608;7.216;2023-09-18T06:53:14;21.23;87.07
65836;SHT30;52595;51.608;7.216;2023-09-18T06:55:39;21.16;87.20
65836;SHT30;52595;51.608;7.216;2023-09-18T06:58:05;21.22;87.17
65836;SHT30;52595;51.608;7.216;2023-09-18T07:00:30;21.19;86.80
65836;SHT30;52595;51.608;7.216;2023-09-18T07:02:56;21.19;86.64
65836;SHT30;52595;51.608;7.216;2023-09-18T07:05:21;21.28;86.49
65836;SHT30;52595;51.608;7.216;2023-09-18T07:07:46;21.29;86.16
65836;SHT30;52595;51.608;7.216;2023-09-18T07:10:12;21.32;86.16
65836;SHT30;52595;51.608;7.216;2023-09-18T07:12:37;21.32;86.38
65836;SHT30;52595;51.608;7.216;2023-09-18T07:15:03;21.28;86.40
65836;SHT30;52595;51.608;7.216;2023-09-18T07:17:29;21.30;86.15
65836;SHT30;52595;51.608;7.216;2023-09-18T07:19:54;21.39;86.03
65836;SHT30;52595;51.608;7.216;2023-09-18T07:22:19;21.43;85.86
65836;SHT30;52595;51.608;7.216;2023-09-18T07:24:45;21.47;85.29
65836;SHT30;52595;51.608;7.216;2023-09-18T07:27:11;21.56;85.20
65836;SHT30;52595;51.608;7.216;2023-09-18T07:29:36;21.59;85.22
65836;SHT30;52595;51.608;7.216;2023-09-18T07:32:02;21.63;84.78
65836;SHT30;52595;51.608;7.216;2023-09-18T07:34:27;21.69;84.89
65836;SHT30;52595;51.608;7.216;2023-09-18T07:36:53;21.79;84.68
65836;SHT30;52595;51.608;7.216;2023-09-18T07:39:20;21.79;84.42
65836;SHT30;52595;51.608;7.216;2023-09-18T07:41:48;21.90;84.22
65836;SHT30;52595;51.608;7.216;2023-09-18T07:44:20;22.04;83.81
65836;SHT30;52595;51.608;7.216;2023-09-18T07:46:46;22.08;83.58
65836;SHT30;52595;51.608;7.216;2023-09-18T07:49:11;21.94;84.07
65836;SHT30;52595;51.608;7.216;2023-09-18T07:51:37;21.89;84.17
65836;SHT30;52595;51.608;7.216;2023-09-18T07:54:03;21.87;84.14
65836;SHT30;52595;51.608;7.216;2023-09-18T07:56:28;22.04;83.53
65836;SHT30;52595;51.608;7.216;2023-09-18T07:58:56;22.04;83.06
65836;SHT30;52595;51.608;7.216;2023-09-18T08:01:21;21.93;83.46
65836;SHT30;52595;51.608;7.216;2023-09-18T08:03:48;21.76;83.62
65836;SHT30;52595;51.608;7.216;2023-09-18T08:06:14;21.67;83.89
65836;SHT30;52595;51.608;7.216;2023-09-18T08:08:43;21.69;83.85
65836;SHT30;52595;51.608;7.216;2023-09-18T08:11:09;21.74;83.76
65836;SHT30;52595;51.608;7.216;2023-09-18T08:13:34;21.73;84.01
65836;SHT30;52595;51.608;7.216;2023-09-18T08:16:00;21.76;84.04
65836;SHT30;52595;51.608;7.216;2023-09-18T08:18:26;21.70;84.12
65836;SHT30;52595;51.608;7.216;2023-09-18T08:20:52;21.64;83.84
65836;SHT30;52595;51.608;7.216;2023-09-18T08:23:18;21.57;83.70
65836;SHT30;52595;51.608;7.216;2023-09-18T08:25:44;21.61;83.57
65836;SHT30;52595;51.608;7.216;2023-09-18T08:28:09;21.66;83.91
65836;SHT30;52595;51.608;7.216;2023-09-18T08:30:34;21.63;83.44
65836;SHT30;52595;51.608;7.216;2023-09-18T08:33:02;21.54;84.05
65836;SHT30;52595;51.608;7.216;2023-09-18T08:35:27;21.57;83.43
65836;SHT30;52595;51.608;7.216;2023-09-18T08:37:55;21.43;83.70
65836;SHT30;52595;51.608;7.216;2023-09-18T08:40:22;21.50;83.67
65836;SHT30;52595;51.608;7.216;2023-09-18T08:42:51;21.45;83.70
65836;SHT30;52595;51.608;7.216;2023-09-18T08:45:52;21.59;83.51
65836;SHT30;52595;51.608;7.216;2023-09-18T08:48:19;21.70;83.38
65836;SHT30;52595;51.608;7.216;2023-09-18T08:50:45;21.74;83.01
65836;SHT30;52595;51.608;7.216;2023-09-18T08:53:12;21.79;82.69
65836;SHT30;52595;51.608;7.216;2023-09-18T08:55:37;21.91;82.75
65836;SHT30;52595;51.608;7.216;2023-09-18T08:58:03;22.03;82.15
65836;SHT30;52595;51.608;7.216;2023-09-18T09:00:28;21.96;81.77
65836;SHT30;52595;51.608;7.216;2023-09-18T09:02:54;22.01;81.55
65836;SHT30;52595;51.608;7.216;2023-09-18T09:05:23;21.83;81.65
65836;SHT30;52595;51.608;7.216;2023-09-18T09:07:49;21.81;81.44
65836;SHT30;52595;51.608;7.216;2023-09-18T09:10:15;21.86;81.46
65836;SHT30;52595;51.608;7.216;2023-09-18T09:12:58;21.80;81.63
65836;SHT30;52595;51.608;7.216;2023-09-18T09:15:46;21.83;81.47
65836;SHT30;52595;51.608;7.216;2023-09-18T09:18:12;21.91;80.67
65836;SHT30;52595;51.608;7.216;2023-09-18T09:20:39;21.79;80.79
65836;SHT30;52595;51.608;7.216;2023-09-18T09:23:07;21.86;80.98
65836;SHT30;52595;51.608;7.216;2023-09-18T09:25:33;21.73;81.34
65836;SHT30;52595;51.608;7.216;2023-09-18T09:28:04;22.00;80.92
65836;SHT30;52595;51.608;7.216;2023-09-18T09:30:30;22.15;80.83
65836;SHT30;52595;51.608;7.216;2023-09-18T09:32:57;22.11;80.16
65836;SHT30;52595;51.608;7.216;2023-09-18T09:35:30;22.24;80.68
65836;SHT30;52595;51.608;7.216;2023-09-18T09:38:11;21.93;79.88
65836;SHT30;52595;51.608;7.216;2023-09-18T09:40:39;21.86;80.09
65836;SHT30;52595;51.608;7.216;2023-09-18T09:43:10;21.84;79.89
65836;SHT30;52595;51.608;7.216;2023-09-18T09:45:36;21.91;79.99
65836;SHT30;52595;51.608;7.216;2023-09-18T09:48:05;22.03;79.63
65836;SHT30;52595;51.608;7.216;2023-09-18T09:50:44;22.34;79.40
65836;SHT30;52595;51.608;7.216;2023-09-18T09:53:11;22.47;78.87
65836;SHT30;52595;51.608;7.216;2023-09-18T09:55:37;22.43;78.97
65836;SHT30;52595;51.608;7.216;2023-09-18T09:58:05;22.38;78.51
65836;SHT30;52595;51.608;7.216;2023-09-18T10:00:46;22.54;78.62
65836;SHT30;52595;51.608;7.216;2023-09-18T10:03:17;22.72;77.42
65836;SHT30;52595;51.608;7.216;2023-09-18T10:05:45;22.66;77.37
65836;SHT30;52595;51.608;7.216;2023-09-18T10:08:19;22.35;78.11
65836;SHT30;52595;51.608;7.216;2023-09-18T10:10:48;22.61;77.30
65836;SHT30;52595;51.608;7.216;2023-09-18T10:13:33;22.45;77.18
65836;SHT30;52595;51.608;7.216;2023-09-18T10:16:04;22.37;77.51
65836;SHT30;52595;51.608;7.216;2023-09-18T10:18:44;22.73;76.77
65836;SHT30;52595;51.608;7.216;2023-09-18T10:21:26;22.65;77.13
65836;SHT30;52595;51.608;7.216;2023-09-18T10:24:21;22.89;76.24
65836;SHT30;52595;51.608;7.216;2023-09-18T10:26:59;23.05;76.06
65836;SHT30;52595;51.608;7.216;2023-09-18T10:29:25;23.10;76.72
65836;SHT30;52595;51.608;7.216;2023-09-18T10:31:53;23.08;75.92
65836;SHT30;52595;51.608;7.216;2023-09-18T10:34:21;22.98;76.51
65836;SHT30;52595;51.608;7.216;2023-09-18T10:36:48;22.96;75.56
65836;SHT30;52595;51.608;7.216;2023-09-18T10:39:14;23.08;75.61
65836;SHT30;52595;51.608;7.216;2023-09-18T10:41:47;23.23;75.43
65836;SHT30;52595;51.608;7.216;2023-09-18T10:44:13;23.31;75.89
65836;SHT30;52595;51.608;7.216;2023-09-18T10:46:39;23.60;74.96
65836;SHT30;52595;51.608;7.216;2023-09-18T10:49:05;23.43;75.60
65836;SHT30;52595;51.608;7.216;2023-09-18T10:51:31;23.90;74.75
65836;SHT30;52595;51.608;7.216;2023-09-18T10:53:57;24.20;74.14
65836;SHT30;52595;51.608;7.216;2023-09-18T10:56:24;24.20;73.19
65836;SHT30;52595;51.608;7.216;2023-09-18T10:58:58;23.97;73.64
65836;SHT30;52595;51.608;7.216;2023-09-18T11:01:24;23.98;72.92
65836;SHT30;52595;51.608;7.216;2023-09-18T11:03:52;24.10;72.89
65836;SHT30;52595;51.608;7.216;2023-09-18T11:06:18;23.90;73.59
65836;SHT30;52595;51.608;7.216;2023-09-18T11:08:49;24.54;72.71
65836;SHT30;52595;51.608;7.216;2023-09-18T11:11:17;26.06;69.49
65836;SHT30;52595;51.608;7.216;2023-09-18T11:13:47;26.35;67.39
65836;SHT30;52595;51.608;7.216;2023-09-18T11:16:13;26.48;66.23
65836;SHT30;52595;51.608;7.216;2023-09-18T11:18:39;26.02;67.61
65836;SHT30;52595;51.608;7.216;2023-09-18T11:21:11;25.50;68.58
65836;SHT30;52595;51.608;7.216;2023-09-18T11:23:38;25.66;67.90
65836;SHT30;52595;51.608;7.216;2023-09-18T11:26:09;26.21;66.95
65836;SHT30;52595;51.608;7.216;2023-09-18T11:28:35;26.87;67.08
65836;SHT30;52595;51.608;7.216;2023-09-18T11:31:02;25.84;67.07
65836;SHT30;52595;51.608;7.216;2023-09-18T11:33:39;25.64;67.52
65836;SHT30;52595;51.608;7.216;2023-09-18T11:36:06;25.84;68.06
65836;SHT30;52595;51.608;7.216;2023-09-18T11:38:47;25.17;68.50
65836;SHT30;52595;51.608;7.216;2023-09-18T11:41:21;25.63;69.34
65836;SHT30;52595;51.608;7.216;2023-09-18T11:43:47;25.51;67.76
65836;SHT30;52595;51.608;7.216;2023-09-18T11:46:18;27.23;64.07
65836;SHT30;52595;51.608;7.216;2023-09-18T11:48:44;26.59;65.21
65836;SHT30;52595;51.608;7.216;2023-09-18T11:51:10;26.08;66.47
65836;SHT30;52595;51.608;7.216;2023-09-18T11:53:38;25.00;68.40
65836;SHT30;52595;51.608;7.216;2023-09-18T11:56:10;24.75;69.52
65836;SHT30;52595;51.608;7.216;2023-09-18T11:58:46;24.44;70.94
65836;SHT30;52595;51.608;7.216;2023-09-18T12:01:12;24.38;70.87
65836;SHT30;52595;51.608;7.216;2023-09-18T12:03:40;24.45;71.10
65836;SHT30;52595;51.608;7.216;2023-09-18T12:06:06;24.14;71.55
65836;SHT30;52595;51.608;7.216;2023-09-18T12:08:34;23.98;71.97
65836;SHT30;52595;51.608;7.216;2023-09-18T12:11:04;24.17;71.67
65836;SHT30;52595;51.608;7.216;2023-09-18T12:13:31;24.34;71.34
65836;SHT30;52595;51.608;7.216;2023-09-18T12:16:01;24.41;71.65
65836;SHT30;52595;51.608;7.216;2023-09-18T12:18:27;24.03;70.95
65836;SHT30;52595;51.608;7.216;2023-09-18T12:20:56;26.04;65.80
65836;SHT30;52595;51.608;7.216;2023-09-18T12:23:24;27.43;62.08
65836;SHT30;52595;51.608;7.216;2023-09-18T12:25:57;27.43;61.88
65836;SHT30;52595;51.608;7.216;2023-09-18T12:28:24;26.80;62.87
65836;SHT30;52595;51.608;7.216;2023-09-18T12:30:52;27.92;60.71
65836;SHT30;52595;51.608;7.216;2023-09-18T12:33:21;28.01;60.90
65836;SHT30;52595;51.608;7.216;2023-09-18T12:35:47;27.77;60.96
65836;SHT30;52595;51.608;7.216;2023-09-18T12:38:17;28.12;60.54
65836;SHT30;52595;51.608;7.216;2023-09-18T12:40:44;27.67;60.98
65836;SHT30;52595;51.608;7.216;2023-09-18T12:43:12;26.18;64.23
65836;SHT30;52595;51.608;7.216;2023-09-18T12:45:39;25.24;66.14
65836;SHT30;52595;51.608;7.216;2023-09-18T12:48:06;25.92;65.36
65836;SHT30;52595;51.608;7.216;2023-09-18T12:50:31;26.83;63.20
65836;SHT30;52595;51.608;7.216;2023-09-18T12:53:26;27.80;60.31
65836;SHT30;52595;51.608;7.216;2023-09-18T12:55:51;27.58;59.78
65836;SHT30;52595;51.608;7.216;2023-09-18T12:58:19;28.97;57.78
65836;SHT30;52595;51.608;7.216;2023-09-18T13:00:49;29.78;55.38
65836;SHT30;52595;51.608;7.216;2023-09-18T13:03:15;28.62;54.83
65836;SHT30;52595;51.608;7.216;2023-09-18T13:05:40;29.50;54.82
65836;SHT30;52595;51.608;7.216;2023-09-18T13:08:06;27.98;55.98
65836;SHT30;52595;51.608;7.216;2023-09-18T13:10:45;27.41;58.34
65836;SHT30;52595;51.608;7.216;2023-09-18T13:13:18;27.43;58.79
65836;SHT30;52595;51.608;7.216;2023-09-18T13:15:44;27.97;58.34
65836;SHT30;52595;51.608;7.216;2023-09-18T13:18:12;28.26;57.01
65836;SHT30;52595;51.608;7.216;2023-09-18T13:20:38;28.01;56.01
65836;SHT30;52595;51.608;7.216;2023-09-18T13:23:05;28.45;55.38
65836;SHT30;52595;51.608;7.216;2023-09-18T13:25:36;28.34;55.82
65836;SHT30;52595;51.608;7.216;2023-09-18T13:28:05;27.91;56.49
65836;SHT30;52595;51.608;7.216;2023-09-18T13:30:32;28.35;56.01
65836;SHT30;52595;51.608;7.216;2023-09-18T13:33:04;29.21;54.91
65836;SHT30;52595;51.608;7.216;2023-09-18T13:35:31;28.22;55.87
65836;SHT30;52595;51.608;7.216;2023-09-18T13:37:57;28.25;56.14
65836;SHT30;52595;51.608;7.216;2023-09-18T13:40:22;27.26;58.27
65836;SHT30;52595;51.608;7.216;2023-09-18T13:42:48;26.55;60.27
65836;SHT30;52595;51.608;7.216;2023-09-18T13:45:16;26.46;60.53
65836;SHT30;52595;51.608;7.216;2023-09-18T13:47:42;27.92;57.96
65836;SHT30;52595;51.608;7.216;2023-09-18T13:50:08;28.38;56.50
65836;SHT30;52595;51.608;7.216;2023-09-18T13:52:35;28.75;55.66
65836;SHT30;52595;51.608;7.216;2023-09-18T13:55:02;27.72;58.12
65836;SHT30;52595;51.608;7.216;2023-09-18T13:57:33;27.60;58.77
65836;SHT30;52595;51.608;7.216;2023-09-18T13:59:59;28.67;57.70
65836;SHT30;52595;51.608;7.216;2023-09-18T14:02:25;29.77;54.04
65836;SHT30;52595;51.608;7.216;2023-09-18T14:04:54;28.76;54.58
65836;SHT30;52595;51.608;7.216;2023-09-18T14:07:19;28.56;53.76
65836;SHT30;52595;51.608;7.216;2023-09-18T14:09:45;27.61;53.46
65836;SHT30;52595;51.608;7.216;2023-09-18T14:12:11;28.44;53.13
65836;SHT30;52595;51.608;7.216;2023-09-18T14:14:37;28.57;53.79
65836;SHT30;52595;51.608;7.216;2023-09-18T14:17:03;29.67;51.83
65836;SHT30;52595;51.608;7.216;2023-09-18T14:19:29;28.99;51.64
65836;SHT30;52595;51.608;7.216;2023-09-18T14:21:54;29.11;52.33
65836;SHT30;52595;51.608;7.216;2023-09-18T14:24:20;29.47;51.19
65836;SHT30;52595;51.608;7.216;2023-09-18T14:26:50;27.50;53.82
65836;SHT30;52595;51.608;7.216;2023-09-18T14:29:15;27.77;54.51
65836;SHT30;52595;51.608;7.216;2023-09-18T14:31:41;28.04;54.42
65836;SHT30;52595;51.608;7.216;2023-09-18T14:34:07;29.10;52.00
65836;SHT30;52595;51.608;7.216;2023-09-18T14:36:34;29.51;50.50
65836;SHT30;52595;51.608;7.216;2023-09-18T14:39:02;30.42;49.82
65836;SHT30;52595;51.608;7.216;2023-09-18T14:41:28;30.19;51.02
65836;SHT30;52595;51.608;7.216;2023-09-18T14:43:54;28.60;52.84
65836;SHT30;52595;51.608;7.216;2023-09-18T14:46:22;29.23;50.62
65836;SHT30;52595;51.608;7.216;2023-09-18T14:48:48;27.64;54.43
65836;SHT30;52595;51.608;7.216;2023-09-18T14:51:13;28.34;53.81
65836;SHT30;52595;51.608;7.216;2023-09-18T14:53:38;28.26;53.17
65836;SHT30;52595;51.608;7.216;2023-09-18T14:56:04;29.23;51.82
65836;SHT30;52595;51.608;7.216;2023-09-18T14:58:30;28.62;53.58
65836;SHT30;52595;51.608;7.216;2023-09-18T15:00:56;28.56;54.22
65836;SHT30;52595;51.608;7.216;2023-09-18T15:03:22;29.10;52.26
65836;SHT30;52595;51.608;7.216;2023-09-18T15:05:51;28.95;53.09
65836;SHT30;52595;51.608;7.216;2023-09-18T15:08:17;29.60;52.11
65836;SHT30;52595;51.608;7.216;2023-09-18T15:10:45;29.16;52.58
65836;SHT30;52595;51.608;7.216;2023-09-18T15:13:11;29.41;52.19
65836;SHT30;52595;51.608;7.216;2023-09-18T15:15:36;30.90;49.07
65836;SHT30;52595;51.608;7.216;2023-09-18T15:18:01;29.24;49.61
65836;SHT30;52595;51.608;7.216;2023-09-18T15:20:27;27.76;50.66
65836;SHT30;52595;51.608;7.216;2023-09-18T15:22:53;28.04;50.80
65836;SHT30;52595;51.608;7.216;2023-09-18T15:25:21;28.15;51.60
65836;SHT30;52595;51.608;7.216;2023-09-18T15:27:46;28.42;51.24
65836;SHT30;52595;51.608;7.216;2023-09-18T15:30:12;29.06;50.93
65836;SHT30;52595;51.608;7.216;2023-09-18T15:35:18;28.32;53.07